createdAt,value
2022-08-02T00:02:45.774Z,19.61
2022-08-02T00:05:31.559Z,19.57
2022-08-02T00:08:17.112Z,19.57
2022-08-02T00:11:03.102Z,19.57
2022-08-02T00:13:50.686Z,19.60
2022-08-02T00:16:37.456Z,19.58
2022-08-02T00:19:29.211Z,19.57
2022-08-02T00:22:15.400Z,19.57
2022-08-02T00:25:00.706Z,19.54
2022-08-02T00:27:45.855Z,19.55
2022-08-02T00:30:30.964Z,19.54
2022-08-02T00:33:16.628Z,19.57
2022-08-02T00:36:21.874Z,19.59
2022-08-02T00:39:06.994Z,19.58
2022-08-02T00:42:14.836Z,19.56
2022-08-02T00:45:00.475Z,19.55
2022-08-02T00:47:45.663Z,19.54
2022-08-02T00:50:31.884Z,19.51
2022-08-02T00:53:17.295Z,19.47
2022-08-02T00:56:02.781Z,19.44
2022-08-02T00:58:48.755Z,19.36
2022-08-02T01:01:56.991Z,19.31
2022-08-02T01:04:43.116Z,19.29
2022-08-02T01:07:28.658Z,19.32
2022-08-02T01:10:14.288Z,19.33
2022-08-02T01:12:59.573Z,19.30
2022-08-02T01:15:50.174Z,19.33
2022-08-02T01:18:43.563Z,19.34
2022-08-02T01:21:41.007Z,19.35
2022-08-02T01:25:15.088Z,19.35
2022-08-02T01:28:33.413Z,19.39
2022-08-02T01:31:36.241Z,19.40
2022-08-02T01:34:32.476Z,19.39
2022-08-02T01:37:42.968Z,19.39
2022-08-02T01:40:34.164Z,19.38
2022-08-02T01:43:21.831Z,19.34
2022-08-02T01:46:08.095Z,19.31
2022-08-02T01:48:56.640Z,19.27
2022-08-02T01:52:01.994Z,19.25
2022-08-02T01:55:04.386Z,19.26
2022-08-02T01:57:52.356Z,19.29
2022-08-02T02:00:40.679Z,19.29
2022-08-02T02:03:27.916Z,19.27
2022-08-02T02:06:15.101Z,19.20
2022-08-02T02:09:00.884Z,19.12
2022-08-02T02:12:06.215Z,19.08
2022-08-02T02:14:54.875Z,19.04
2022-08-02T02:18:10.722Z,19.00
2022-08-02T02:20:49.484Z,18.99
2022-08-02T02:23:35.594Z,18.99
2022-08-02T02:26:31.177Z,19.00
2022-08-02T02:29:20.356Z,19.02
2022-08-02T02:32:06.416Z,18.99
2022-08-02T02:34:53.180Z,18.99
2022-08-02T02:37:39.460Z,19.00
2022-08-02T02:40:27.437Z,18.95
2022-08-02T02:43:14.436Z,18.95
2022-08-02T02:46:01.770Z,18.92
2022-08-02T02:48:49.458Z,18.91
2022-08-02T02:51:35.368Z,18.92
2022-08-02T02:54:33.296Z,18.93
2022-08-02T02:57:20.747Z,18.95
2022-08-02T03:00:09.878Z,18.95
2022-08-02T03:02:55.627Z,18.89
2022-08-02T03:05:40.985Z,18.83
2022-08-02T03:08:26.286Z,18.73
2022-08-02T03:11:12.755Z,18.69
2022-08-02T03:14:00.222Z,18.67
2022-08-02T03:16:48.380Z,18.64
2022-08-02T03:19:33.614Z,18.57
2022-08-02T03:22:18.908Z,18.56
2022-08-02T03:25:04.553Z,18.56
2022-08-02T03:27:50.808Z,18.56
2022-08-02T03:30:36.125Z,18.50
2022-08-02T03:33:23.187Z,18.46
2022-08-02T03:36:13.597Z,18.43
2022-08-02T03:39:01.656Z,18.43
2022-08-02T03:41:49.472Z,18.39
2022-08-02T03:44:35.467Z,18.36
2022-08-02T03:47:23.157Z,18.28
2022-08-02T03:50:12.700Z,18.25
2022-08-02T03:52:59.262Z,18.26
2022-08-02T03:55:45.595Z,18.27
2022-08-02T03:58:31.396Z,18.30
2022-08-02T04:01:16.903Z,18.36
2022-08-02T04:04:02.341Z,18.33
2022-08-02T04:06:47.864Z,18.30
2022-08-02T04:09:33.215Z,18.35
2022-08-02T04:12:18.511Z,18.39
2022-08-02T04:15:06.081Z,18.40
2022-08-02T04:17:58.909Z,18.39
2022-08-02T04:20:45.872Z,18.44
2022-08-02T04:23:33.198Z,18.49
2022-08-02T04:26:23.924Z,18.45
2022-08-02T04:29:15.082Z,18.36
2022-08-02T04:32:01.172Z,18.30
2022-08-02T04:35:11.262Z,18.26
2022-08-02T04:38:05.682Z,18.25
2022-08-02T04:40:56.141Z,18.21
2022-08-02T04:43:41.431Z,18.18
2022-08-02T04:46:26.730Z,18.20
2022-08-02T04:49:16.911Z,18.22
2022-08-02T04:52:02.516Z,18.31
2022-08-02T04:54:47.739Z,18.39
2022-08-02T04:57:52.916Z,18.37
2022-08-02T05:00:38.667Z,18.31
2022-08-02T05:03:24.181Z,18.26
2022-08-02T05:06:19.355Z,18.30
2022-08-02T05:09:04.961Z,18.37
2022-08-02T05:11:55.055Z,18.42
2022-08-02T05:14:40.727Z,18.47
2022-08-02T05:17:25.957Z,18.54
2022-08-02T05:20:13.456Z,18.64
2022-08-02T05:22:58.903Z,18.65
2022-08-02T05:25:44.197Z,18.67
2022-08-02T05:28:29.580Z,18.67
2022-08-02T05:31:17.368Z,18.77
2022-08-02T05:34:02.518Z,18.94
2022-08-02T05:36:47.609Z,19.01
2022-08-02T05:39:33.580Z,19.13
2022-08-02T05:42:19.049Z,19.31
2022-08-02T05:45:05.173Z,19.21
2022-08-02T05:47:51.414Z,19.29
2022-08-02T05:50:39.756Z,19.41
2022-08-02T05:53:33.608Z,19.56
2022-08-02T05:56:25.183Z,19.63
2022-08-02T05:59:44.427Z,19.72
2022-08-02T06:02:36.251Z,19.85
2022-08-02T06:05:22.711Z,19.99
2022-08-02T06:08:11.860Z,20.10
2022-08-02T06:11:02.418Z,20.23
2022-08-02T06:13:47.756Z,20.27
2022-08-02T06:16:42.142Z,20.28
2022-08-02T06:19:28.349Z,20.36
2022-08-02T06:22:34.830Z,20.48
2022-08-02T06:25:50.997Z,20.61
2022-08-02T06:28:28.980Z,20.76
2022-08-02T06:31:15.495Z,20.93
2022-08-02T06:34:00.902Z,21.10
2022-08-02T06:37:13.932Z,21.21
2022-08-02T06:40:06.890Z,21.38
2022-08-02T06:43:17.730Z,21.49
2022-08-02T06:46:43.015Z,21.56
2022-08-02T06:49:08.784Z,21.68
2022-08-02T06:51:54.443Z,21.80
2022-08-02T06:54:42.131Z,21.88
2022-08-02T06:57:28.626Z,21.94
2022-08-02T07:00:14.329Z,22.04
2022-08-02T07:03:00.068Z,22.13
2022-08-02T07:05:48.431Z,22.21
2022-08-02T07:08:35.856Z,22.25
2022-08-02T07:11:21.384Z,22.25
2022-08-02T07:14:07.301Z,22.26
2022-08-02T07:16:53.447Z,22.16
2022-08-02T07:19:38.801Z,22.04
2022-08-02T07:22:26.810Z,21.97
2022-08-02T07:25:13.088Z,21.95
2022-08-02T07:27:58.517Z,21.92
2022-08-02T07:30:46.246Z,22.15
2022-08-02T07:33:37.977Z,22.25
2022-08-02T07:36:25.504Z,22.28
2022-08-02T07:39:10.986Z,22.36
2022-08-02T07:41:57.161Z,22.32
2022-08-02T07:44:44.326Z,22.42
2022-08-02T07:47:32.208Z,22.52
2022-08-02T07:50:19.551Z,22.58
2022-08-02T07:53:05.145Z,22.73
2022-08-02T07:55:50.369Z,22.70
2022-08-02T07:58:36.148Z,22.55
2022-08-02T08:01:21.341Z,22.40
2022-08-02T08:04:06.971Z,22.44
2022-08-02T08:06:52.727Z,22.48
2022-08-02T08:09:42.177Z,22.49
2022-08-02T08:12:28.373Z,22.47
2022-08-02T08:15:13.723Z,22.49
2022-08-02T08:17:59.118Z,22.70
2022-08-02T08:20:44.507Z,22.74
2022-08-02T08:23:29.915Z,22.78
2022-08-02T08:26:15.844Z,22.85
2022-08-02T08:29:01.917Z,22.91
2022-08-02T08:31:47.451Z,22.89
2022-08-02T08:34:34.822Z,23.06
2022-08-02T08:37:20.431Z,23.29
2022-08-02T08:40:07.314Z,23.20
2022-08-02T08:42:53.484Z,23.13
2022-08-02T08:45:38.818Z,23.28
2022-08-02T08:48:30.932Z,23.51
2022-08-02T08:51:21.776Z,23.65
2022-08-02T08:54:11.715Z,23.71
2022-08-02T08:56:58.645Z,23.71
2022-08-02T08:59:45.617Z,23.40
2022-08-02T09:02:34.188Z,23.39
2022-08-02T09:05:19.618Z,23.19
2022-08-02T09:08:06.010Z,23.17
2022-08-02T09:10:51.276Z,23.03
2022-08-02T09:13:44.989Z,23.35
2022-08-02T09:16:34.178Z,23.73
2022-08-02T09:19:27.072Z,23.97
2022-08-02T09:22:15.413Z,24.11
2022-08-02T09:25:01.635Z,24.24
2022-08-02T09:27:49.122Z,24.50
2022-08-02T09:30:43.181Z,24.41
2022-08-02T09:33:28.991Z,24.58
2022-08-02T09:36:17.035Z,24.78
2022-08-02T09:39:05.527Z,24.94
2022-08-02T09:41:50.829Z,24.98
2022-08-02T09:44:36.545Z,24.95
2022-08-02T09:47:23.039Z,24.92
2022-08-02T09:50:13.315Z,25.11
2022-08-02T09:53:02.888Z,25.14
2022-08-02T09:55:56.401Z,25.36
2022-08-02T09:58:42.389Z,25.41
2022-08-02T10:01:37.635Z,25.07
2022-08-02T10:04:26.897Z,24.70
2022-08-02T10:07:12.807Z,24.81
2022-08-02T10:09:58.277Z,24.72
2022-08-02T10:12:43.647Z,24.79
2022-08-02T10:15:29.154Z,25.04
2022-08-02T10:18:36.977Z,25.36
2022-08-02T10:21:29.635Z,25.60
2022-08-02T10:24:18.606Z,25.85
2022-08-02T10:27:06.318Z,26.08
2022-08-02T10:29:56.136Z,26.19
2022-08-02T10:32:45.820Z,26.29
2022-08-02T10:35:33.769Z,26.33
2022-08-02T10:38:19.730Z,26.21
2022-08-02T10:41:05.833Z,26.08
2022-08-02T10:43:51.081Z,26.31
2022-08-02T10:46:37.008Z,25.91
2022-08-02T10:49:39.961Z,25.66
2022-08-02T10:52:26.528Z,25.56
2022-08-02T10:55:27.281Z,25.36
2022-08-02T10:58:29.549Z,25.54
2022-08-02T11:01:38.662Z,25.61
2022-08-02T11:04:25.639Z,25.62
2022-08-02T11:07:18.395Z,25.63
2022-08-02T11:10:31.924Z,25.69
2022-08-02T11:13:19.912Z,25.45
2022-08-02T11:16:11.326Z,25.42
2022-08-02T11:18:56.841Z,25.38
2022-08-02T11:22:01.445Z,25.53
2022-08-02T11:24:47.290Z,25.53
2022-08-02T11:27:32.903Z,25.34
2022-08-02T11:30:19.239Z,25.26
2022-08-02T11:33:11.695Z,25.42
2022-08-02T11:36:02.412Z,25.42
2022-08-02T11:38:47.658Z,25.50
2022-08-02T11:41:45.993Z,25.52
2022-08-02T11:44:40.412Z,25.47
2022-08-02T11:47:25.595Z,25.52
2022-08-02T11:50:11.164Z,25.59
2022-08-02T11:52:57.192Z,25.67
2022-08-02T11:55:43.161Z,25.68
2022-08-02T11:58:29.013Z,25.52
2022-08-02T12:01:14.510Z,25.47
2022-08-02T12:04:01.766Z,25.39
2022-08-02T12:06:56.121Z,25.46
2022-08-02T12:09:42.537Z,25.43
2022-08-02T12:12:28.536Z,25.36
2022-08-02T12:15:14.858Z,25.32
2022-08-02T12:18:20.655Z,25.42
2022-08-02T12:21:26.431Z,25.48
2022-08-02T12:24:11.914Z,25.48
2022-08-02T12:26:57.241Z,25.53
2022-08-02T12:29:55.909Z,25.40
2022-08-02T12:32:45.295Z,25.34
2022-08-02T12:35:30.826Z,25.50
2022-08-02T12:38:16.707Z,25.65
2022-08-02T12:41:31.323Z,25.74
2022-08-02T12:44:19.680Z,25.87
2022-08-02T12:47:11.958Z,25.93
2022-08-02T12:50:37.812Z,25.92
2022-08-02T12:53:32.773Z,25.84
2022-08-02T12:56:33.621Z,25.52
2022-08-02T12:59:40.305Z,25.65
2022-08-02T13:02:25.883Z,25.77
2022-08-02T13:05:11.201Z,25.84
2022-08-02T13:07:59.053Z,25.78
2022-08-02T13:10:44.559Z,25.85
2022-08-02T13:13:29.994Z,25.71
2022-08-02T13:16:17.161Z,25.77
2022-08-02T13:19:02.749Z,25.84
2022-08-02T13:22:11.542Z,25.88
2022-08-02T13:24:56.493Z,25.77
2022-08-02T13:27:42.426Z,25.85
2022-08-02T13:30:27.688Z,25.99
2022-08-02T13:33:13.338Z,25.98
2022-08-02T13:35:59.329Z,25.91
2022-08-02T13:38:44.706Z,25.89
2022-08-02T13:41:31.744Z,25.82
2022-08-02T13:44:17.452Z,25.88
2022-08-02T13:47:03.253Z,25.96
2022-08-02T13:49:53.370Z,26.02
2022-08-02T13:52:41.990Z,26.06
2022-08-02T13:55:28.393Z,26.10
2022-08-02T13:58:17.586Z,26.12
2022-08-02T14:01:03.014Z,26.26
2022-08-02T14:04:08.480Z,26.29
2022-08-02T14:06:58.788Z,26.40
2022-08-02T14:09:45.019Z,26.54
2022-08-02T14:12:33.329Z,26.62
2022-08-02T14:15:24.717Z,26.65
2022-08-02T14:18:16.712Z,26.72
2022-08-02T14:21:02.381Z,26.71
2022-08-02T14:23:53.774Z,26.72
2022-08-02T14:27:04.588Z,26.76
2022-08-02T14:29:51.890Z,26.86
2022-08-02T14:32:41.057Z,26.89
2022-08-02T14:35:27.054Z,26.97
2022-08-02T14:38:22.161Z,26.95
2022-08-02T14:41:32.203Z,26.95
2022-08-02T14:44:18.534Z,26.93
2022-08-02T14:47:05.865Z,27.03
2022-08-02T14:49:54.024Z,27.17
2022-08-02T14:52:42.371Z,27.26
2022-08-02T14:55:30.556Z,27.35
2022-08-02T14:58:16.080Z,27.32
2022-08-02T15:01:01.534Z,27.27
2022-08-02T15:03:47.595Z,27.29
2022-08-02T15:06:33.031Z,27.33
2022-08-02T15:09:18.725Z,27.19
2022-08-02T15:12:05.515Z,27.00
2022-08-02T15:14:52.236Z,27.08
2022-08-02T15:17:37.687Z,27.22
2022-08-02T15:20:25.587Z,27.32
2022-08-02T15:23:11.182Z,27.44
2022-08-02T15:25:58.230Z,27.52
2022-08-02T15:28:43.668Z,27.52
2022-08-02T15:31:33.233Z,27.50
2022-08-02T15:34:19.028Z,27.53
2022-08-02T15:37:04.232Z,27.56
2022-08-02T15:39:49.482Z,27.51
2022-08-02T15:42:34.577Z,27.34
2022-08-02T15:45:20.018Z,27.30
2022-08-02T15:48:05.940Z,27.34
2022-08-02T15:50:51.223Z,27.40
2022-08-02T15:53:36.575Z,27.40
2022-08-02T15:56:24.303Z,27.40
2022-08-02T15:59:09.767Z,27.43
2022-08-02T16:01:55.337Z,27.40
2022-08-02T16:04:43.140Z,27.28
2022-08-02T16:07:28.270Z,27.35
2022-08-02T16:10:15.422Z,27.45
2022-08-02T16:13:19.496Z,27.46
2022-08-02T16:16:04.965Z,27.45
2022-08-02T16:18:50.702Z,27.44
2022-08-02T16:21:35.813Z,27.44
2022-08-02T16:24:21.356Z,27.41
2022-08-02T16:27:08.383Z,27.38
2022-08-02T16:29:54.495Z,27.35
2022-08-02T16:32:39.737Z,27.34
2022-08-02T16:35:25.432Z,27.34
2022-08-02T16:38:12.766Z,27.33
2022-08-02T16:41:01.559Z,27.34
2022-08-02T16:43:46.987Z,27.35
2022-08-02T16:46:32.306Z,27.31
2022-08-02T16:50:06.796Z,27.28
2022-08-02T16:52:23.380Z,27.02
2022-08-02T16:55:11.222Z,26.93
2022-08-02T16:57:57.903Z,26.83
2022-08-02T17:00:44.940Z,26.50
2022-08-02T17:06:40.122Z,26.46
2022-08-02T17:10:04.554Z,26.45
2022-08-02T17:12:40.144Z,26.43
2022-08-02T17:16:07.539Z,26.41
2022-08-02T17:18:34.425Z,26.31
2022-08-02T17:21:27.944Z,26.29
2022-08-02T17:24:13.408Z,26.20
2022-08-02T17:26:58.593Z,26.15
2022-08-02T17:29:43.975Z,26.03
2022-08-02T17:32:33.448Z,25.97
2022-08-02T17:35:18.465Z,25.92
2022-08-02T17:38:05.385Z,25.84
2022-08-02T17:40:50.972Z,25.79
2022-08-02T17:43:39.544Z,25.72
2022-08-02T17:46:26.749Z,25.70
2022-08-02T17:49:16.741Z,25.69
2022-08-02T17:52:47.754Z,25.66
2022-08-02T17:55:10.640Z,25.61
2022-08-02T17:57:58.514Z,25.56
2022-08-02T18:00:44.944Z,25.48
2022-08-02T18:03:30.452Z,25.42
2022-08-02T18:06:16.443Z,25.33
2022-08-02T18:09:04.134Z,25.26
2022-08-02T18:11:53.455Z,25.19
2022-08-02T18:14:46.174Z,25.16
2022-08-02T18:17:34.432Z,25.12
2022-08-02T18:20:20.654Z,25.07
2022-08-02T18:23:07.496Z,25.04
2022-08-02T18:25:56.825Z,25.02
2022-08-02T18:28:42.449Z,24.99
2022-08-02T18:31:27.978Z,24.93
2022-08-02T18:34:13.465Z,24.83
2022-08-02T18:36:58.860Z,24.77
2022-08-02T18:39:51.411Z,24.70
2022-08-02T18:42:37.474Z,24.64
2022-08-02T18:45:23.644Z,24.59
2022-08-02T18:48:08.942Z,24.54
2022-08-02T18:50:54.301Z,24.48
2022-08-02T18:53:42.786Z,24.45
2022-08-02T18:56:28.691Z,24.39
2022-08-02T18:59:19.130Z,24.34
2022-08-02T19:02:04.745Z,24.31
2022-08-02T19:04:50.034Z,24.26
2022-08-02T19:10:49.342Z,24.20
2022-08-02T19:13:40.743Z,24.19
2022-08-02T19:19:33.669Z,24.12
2022-08-02T19:22:20.338Z,24.08
2022-08-02T19:25:06.624Z,24.05
2022-08-02T19:28:02.877Z,24.02
2022-08-02T19:30:49.273Z,23.99
2022-08-02T19:34:06.304Z,23.98
2022-08-02T19:36:43.414Z,23.98
2022-08-02T19:39:29.431Z,23.97
2022-08-02T19:42:16.337Z,23.99
2022-08-02T19:45:02.543Z,23.97
2022-08-02T19:47:54.398Z,23.98
2022-08-02T19:50:41.522Z,23.98
2022-08-02T19:53:46.411Z,23.96
2022-08-02T19:56:34.314Z,23.97
2022-08-02T19:59:20.252Z,23.94
2022-08-02T20:02:05.968Z,23.93
2022-08-02T20:04:52.835Z,23.90
2022-08-02T20:07:57.309Z,23.88
2022-08-02T20:10:45.906Z,23.84
2022-08-02T20:13:34.665Z,23.83
2022-08-02T20:16:34.617Z,23.81
2022-08-02T20:19:20.391Z,23.78
2022-08-02T20:22:07.874Z,23.77
2022-08-02T20:24:53.605Z,23.77
2022-08-02T20:27:39.027Z,23.74
2022-08-02T20:30:39.818Z,23.72
2022-08-02T20:33:25.274Z,23.72
2022-08-02T20:36:10.755Z,23.72
2022-08-02T20:38:56.303Z,23.66
2022-08-02T20:41:46.392Z,23.64
2022-08-02T20:44:34.476Z,23.63
2022-08-02T20:47:20.138Z,23.60
2022-08-02T20:50:33.075Z,23.51
2022-08-02T20:53:23.616Z,23.46
2022-08-02T20:56:14.039Z,23.41
2022-08-02T20:59:04.142Z,23.41
2022-08-02T21:02:01.461Z,23.34
2022-08-02T21:04:46.976Z,23.31
2022-08-02T21:07:32.283Z,23.31
2022-08-02T21:10:17.818Z,23.31
2022-08-02T21:13:18.948Z,23.27
2022-08-02T21:16:07.822Z,23.17
2022-08-02T21:19:00.281Z,23.20
2022-08-02T21:21:46.116Z,23.18
2022-08-02T21:24:31.615Z,23.16
2022-08-02T21:27:53.051Z,23.17
2022-08-02T21:30:24.403Z,23.16
2022-08-02T21:33:17.806Z,23.17
2022-08-02T21:36:03.999Z,23.18
2022-08-02T21:38:49.530Z,23.19
2022-08-02T21:41:46.382Z,23.17
2022-08-02T21:44:32.656Z,23.18
2022-08-02T21:47:27.567Z,23.15
2022-08-02T21:50:16.471Z,23.16
2022-08-02T21:53:01.873Z,23.18
2022-08-02T21:56:00.894Z,23.16
2022-08-02T21:58:47.824Z,23.13
2022-08-02T22:01:35.387Z,23.08
2022-08-02T22:04:21.639Z,23.04
2022-08-02T22:07:07.459Z,22.99
2022-08-02T22:09:54.049Z,22.98
2022-08-02T22:12:40.965Z,22.98
2022-08-02T22:15:36.045Z,22.97
2022-08-02T22:18:29.340Z,23.00
2022-08-02T22:21:16.951Z,22.95
2022-08-02T22:24:02.125Z,22.92
2022-08-02T22:26:47.856Z,22.93
2022-08-02T22:29:33.616Z,22.98
2022-08-02T22:32:40.338Z,23.01
2022-08-02T22:35:26.431Z,23.03
2022-08-02T22:38:18.411Z,23.03
2022-08-02T22:41:03.865Z,22.96
2022-08-02T22:43:49.511Z,22.85
2022-08-02T22:46:35.238Z,22.75
2022-08-02T22:49:38.620Z,22.66
2022-08-02T22:52:27.929Z,22.56
2022-08-02T22:55:14.428Z,22.50
2022-08-02T22:58:00.277Z,22.44
2022-08-02T22:58:36.522Z,26.56
2022-08-02T22:58:47.001Z,24.24
2022-08-02T22:58:47.334Z,24.14
2022-08-02T23:00:45.793Z,22.40
2022-08-02T23:03:31.508Z,22.37
2022-08-02T23:06:22.696Z,22.35
2022-08-02T23:09:10.112Z,22.30
2022-08-02T23:11:55.943Z,22.28
2022-08-02T23:14:41.977Z,22.25
2022-08-02T23:17:45.682Z,22.24
2022-08-02T23:20:30.957Z,22.21
2022-08-02T23:23:16.056Z,22.22
2022-08-02T23:26:01.279Z,22.21
2022-08-02T23:28:46.628Z,22.20
2022-08-02T23:31:38.160Z,22.21
2022-08-02T23:34:23.805Z,22.19
2022-08-02T23:37:09.262Z,22.17
2022-08-02T23:39:55.153Z,22.14
2022-08-02T23:42:40.279Z,22.12
2022-08-02T23:45:25.583Z,22.10
2022-08-02T23:48:20.161Z,22.08
2022-08-02T23:51:05.551Z,22.07
2022-08-02T23:53:50.900Z,22.07
2022-08-02T23:56:37.283Z,22.06
2022-08-02T23:59:22.658Z,22.03
